TimeEST,TemperatureF,Dew PointF,Humidity,Sea Level PressureIn,VisibilityMPH,Wind Direction,Wind SpeedMPH,Gust SpeedMPH,PrecipitationIn,Events,Conditions,WindDirDegrees,DateUTC
12:54 AM,53.1,30.9,43,29.93,10.0,SW,18.4,27.6,N/A,,Overcast,220,2011-11-20 05:54:00
1:54 AM,54.0,32.0,43,29.90,10.0,SW,20.7,33.4,N/A,,Overcast,220,2011-11-20 06:54:00
2:54 AM,55.0,34.0,45,29.89,10.0,SW,16.1,27.6,N/A,,Overcast,220,2011-11-20 07:54:00
3:54 AM,55.0,37.0,51,29.88,10.0,SW,15.0,23.0,N/A,,Mostly Cloudy,220,2011-11-20 08:54:00
4:54 AM,55.0,39.0,55,29.88,10.0,SW,13.8,-,N/A,,Overcast,220,2011-11-20 09:54:00
5:54 AM,55.9,41.0,57,29.89,10.0,SW,12.7,-,N/A,,Overcast,220,2011-11-20 10:54:00
6:54 AM,55.0,45.0,69,29.91,10.0,SW,6.9,-,0.00,,Overcast,220,2011-11-20 11:54:00
7:54 AM,60.1,50.0,69,29.92,10.0,West,18.4,26.5,0.00,Rain,Light Rain,260,2011-11-20 12:54:00
8:54 AM,60.1,50.0,69,29.94,10.0,West,18.4,29.9,0.00,,Mostly Cloudy,260,2011-11-20 13:54:00
9:54 AM,61.0,48.9,64,29.95,10.0,West,24.2,33.4,N/A,,Mostly Cloudy,270,2011-11-20 14:54:00
10:31 AM,60.8,48.2,63,29.97,10.0,West,21.9,35.7,N/A,,Mostly Cloudy,280,2011-11-20 15:31:00
10:54 AM,61.0,48.9,64,29.98,10.0,West,20.7,35.7,N/A,,Mostly Cloudy,270,2011-11-20 15:54:00
11:54 AM,61.0,48.9,64,29.99,10.0,West,17.3,32.2,N/A,,Mostly Cloudy,280,2011-11-20 16:54:00
12:54 PM,55.0,41.0,59,30.04,10.0,NW,18.4,26.5,N/A,,Mostly Cloudy,310,2011-11-20 17:54:00
1:54 PM,53.1,41.0,64,30.06,10.0,NW,15.0,19.6,N/A,,Overcast,310,2011-11-20 18:54:00
2:54 PM,51.1,37.9,61,30.09,10.0,WNW,10.4,-,N/A,,Overcast,300,2011-11-20 19:54:00
3:54 PM,50.0,37.0,61,30.12,10.0,NW,15.0,-,N/A,,Overcast,310,2011-11-20 20:54:00
4:54 PM,48.9,37.9,66,30.15,10.0,NNW,11.5,-,N/A,,Overcast,330,2011-11-20 21:54:00
5:20 PM,46.4,37.4,71,30.16,10.0,NNW,13.8,19.6,N/A,,Overcast,340,2011-11-20 22:20:00
5:54 PM,46.0,36.0,68,30.18,10.0,NW,15.0,-,N/A,,Overcast,320,2011-11-20 22:54:00
6:54 PM,44.1,35.1,71,30.21,10.0,NNW,11.5,-,N/A,,Overcast,340,2011-11-20 23:54:00
7:54 PM,44.1,34.0,68,30.23,10.0,NNW,9.2,-,N/A,,Overcast,330,2011-11-21 00:54:00
8:54 PM,42.1,34.0,73,30.25,10.0,NNW,8.1,-,N/A,,Overcast,340,2011-11-21 01:54:00
9:54 PM,41.0,33.1,73,30.27,10.0,North,10.4,-,N/A,,Overcast,350,2011-11-21 02:54:00
10:54 PM,39.9,32.0,73,30.27,10.0,North,8.1,-,N/A,,Overcast,350,2011-11-21 03:54:00
11:54 PM,39.0,32.0,76,30.29,10.0,North,9.2,-,N/A,,Overcast,350,2011-11-21 04:54:00